createdAt,value
2022-11-23T00:01:20.798Z,12.84
2022-11-23T00:03:50.988Z,12.76
2022-11-23T00:06:19.995Z,12.77
2022-11-23T00:08:48.808Z,12.87
2022-11-23T00:11:17.344Z,12.96
2022-11-23T00:13:48.677Z,12.94
2022-11-23T00:16:19.724Z,12.94
2022-11-23T00:18:48.007Z,12.69
2022-11-23T00:21:17.725Z,12.69
2022-11-23T00:23:46.723Z,12.63
2022-11-23T00:26:16.394Z,12.80
2022-11-23T00:28:44.973Z,12.78
2022-11-23T00:31:14.874Z,12.91
2022-11-23T00:33:44.763Z,12.95
2022-11-23T00:36:15.291Z,12.77
2022-11-23T00:38:45.386Z,12.90
2022-11-23T00:41:14.825Z,12.86
2022-11-23T00:43:43.601Z,12.94
2022-11-23T00:46:15.131Z,13.05
2022-11-23T00:48:44.775Z,13.03
2022-11-23T00:51:14.566Z,12.88
2022-11-23T00:53:42.941Z,13.09
2022-11-23T00:56:11.751Z,13.28
2022-11-23T00:58:40.670Z,13.26
2022-11-23T01:01:11.390Z,13.30
2022-11-23T01:03:41.527Z,13.35
2022-11-23T01:06:13.764Z,13.36
2022-11-23T01:08:42.141Z,13.45
2022-11-23T01:11:12.341Z,13.50
2022-11-23T01:13:42.517Z,13.56
2022-11-23T01:16:18.262Z,13.44
2022-11-23T01:18:53.684Z,13.48
2022-11-23T01:21:23.341Z,13.52
2022-11-23T01:23:51.639Z,13.50
2022-11-23T01:26:19.727Z,13.53
2022-11-23T01:28:47.667Z,13.48
2022-11-23T01:31:17.672Z,13.43
2022-11-23T01:33:46.452Z,13.39
2022-11-23T01:36:16.471Z,13.36
2022-11-23T01:38:48.315Z,12.98
2022-11-23T01:41:18.953Z,13.08
2022-11-23T01:43:47.512Z,12.94
2022-11-23T01:46:15.952Z,12.97
2022-11-23T01:48:47.781Z,12.94
2022-11-23T01:51:19.934Z,12.85
2022-11-23T01:53:52.379Z,12.92
2022-11-23T01:56:24.633Z,12.88
2022-11-23T01:58:55.244Z,12.90
2022-11-23T02:01:23.263Z,12.94
2022-11-23T02:03:52.934Z,12.92
2022-11-23T02:06:22.498Z,12.88
2022-11-23T02:08:52.718Z,12.89
2022-11-23T02:11:21.008Z,12.88
2022-11-23T02:13:51.435Z,12.88
2022-11-23T02:16:20.031Z,12.91
2022-11-23T02:18:51.470Z,12.89
2022-11-23T02:21:19.487Z,12.87
2022-11-23T02:23:56.510Z,12.60
2022-11-23T02:26:27.934Z,12.47
2022-11-23T02:29:01.929Z,12.45
2022-11-23T02:31:29.971Z,12.42
2022-11-23T02:33:58.116Z,12.41
2022-11-23T02:36:38.789Z,12.15
2022-11-23T02:39:10.771Z,12.24
2022-11-23T02:41:42.564Z,12.28
2022-11-23T02:44:33.063Z,12.18
2022-11-23T02:47:01.947Z,12.33
2022-11-23T02:49:30.328Z,12.39
2022-11-23T02:51:59.096Z,12.43
2022-11-23T02:54:27.148Z,12.52
2022-11-23T02:56:56.751Z,12.52
2022-11-23T02:59:25.045Z,12.52
2022-11-23T03:01:53.276Z,12.49
2022-11-23T03:04:27.401Z,12.53
2022-11-23T03:06:56.452Z,12.22
2022-11-23T03:09:27.007Z,12.28
2022-11-23T03:11:56.852Z,12.37
2022-11-23T03:14:25.817Z,12.41
2022-11-23T03:16:53.734Z,12.29
2022-11-23T03:19:21.819Z,12.31
2022-11-23T03:21:49.936Z,12.24
2022-11-23T03:24:18.466Z,12.21
2022-11-23T03:26:46.494Z,12.12
2022-11-23T03:29:15.811Z,12.12
2022-11-23T03:31:43.731Z,12.09
2022-11-23T03:34:12.166Z,12.17
2022-11-23T03:36:40.158Z,12.21
2022-11-23T03:39:08.301Z,12.26
2022-11-23T03:41:36.298Z,12.17
2022-11-23T03:44:04.552Z,12.21
2022-11-23T03:46:33.941Z,12.25
2022-11-23T03:49:02.176Z,12.34
2022-11-23T03:51:30.258Z,12.37
2022-11-23T03:53:58.218Z,12.35
2022-11-23T03:56:26.340Z,12.39
2022-11-23T03:58:54.315Z,12.37
2022-11-23T04:01:22.367Z,12.19
2022-11-23T04:03:51.731Z,12.10
2022-11-23T04:06:19.701Z,11.89
2022-11-23T04:08:47.706Z,11.83
2022-11-23T04:11:15.683Z,11.89
2022-11-23T04:13:43.697Z,11.86
2022-11-23T04:16:11.678Z,11.55
2022-11-23T04:18:39.668Z,11.64
2022-11-23T04:21:09.327Z,11.70
2022-11-23T04:23:37.547Z,11.37
2022-11-23T04:26:05.681Z,11.50
2022-11-23T04:28:33.600Z,11.53
2022-11-23T04:31:01.548Z,11.43
2022-11-23T04:33:31.640Z,11.58
2022-11-23T04:35:59.692Z,11.67
2022-11-23T04:38:29.223Z,11.76
2022-11-23T04:40:57.578Z,11.62
2022-11-23T04:43:25.980Z,11.78
2022-11-23T04:45:53.953Z,11.72
2022-11-23T04:48:22.176Z,11.90
2022-11-23T04:50:54.324Z,11.94
2022-11-23T04:53:23.539Z,11.93
2022-11-23T04:55:53.014Z,11.94
2022-11-23T04:58:21.009Z,12.04
2022-11-23T05:00:49.116Z,12.00
2022-11-23T05:03:17.431Z,12.08
2022-11-23T05:05:45.605Z,12.14
2022-11-23T05:08:13.576Z,12.14
2022-11-23T05:10:41.857Z,12.19
2022-11-23T05:13:11.287Z,12.12
2022-11-23T05:15:39.373Z,11.93
2022-11-23T05:18:10.564Z,11.75
2022-11-23T05:20:39.110Z,11.91
2022-11-23T05:23:08.166Z,12.04
2022-11-23T05:25:36.061Z,12.02
2022-11-23T05:28:30.058Z,11.80
2022-11-23T05:30:53.904Z,12.01
2022-11-23T05:33:22.060Z,11.96
2022-11-23T05:35:50.082Z,12.05
2022-11-23T05:38:18.204Z,12.15
2022-11-23T05:40:46.863Z,12.17
2022-11-23T05:43:15.133Z,12.24
2022-11-23T05:45:43.303Z,12.24
2022-11-23T05:48:12.588Z,12.29
2022-11-23T05:50:40.627Z,12.35
2022-11-23T05:53:08.788Z,12.17
2022-11-23T05:55:36.696Z,11.85
2022-11-23T05:58:04.913Z,11.90
2022-11-23T06:00:33.305Z,12.01
2022-11-23T06:03:02.040Z,11.90
2022-11-23T06:05:32.083Z,12.03
2022-11-23T06:08:00.007Z,12.12
2022-11-23T06:10:27.963Z,12.14
2022-11-23T06:12:56.002Z,12.25
2022-11-23T06:15:42.696Z,12.33
2022-11-23T06:18:11.120Z,12.23
2022-11-23T06:20:40.474Z,12.29
2022-11-23T06:23:08.402Z,12.38
2022-11-23T06:25:38.533Z,12.41
2022-11-23T06:28:07.121Z,12.38
2022-11-23T06:30:35.051Z,12.41
2022-11-23T06:33:04.114Z,12.44
2022-11-23T06:35:32.070Z,12.37
2022-11-23T06:38:01.423Z,12.41
2022-11-23T06:40:29.912Z,12.38
2022-11-23T06:43:00.044Z,12.22
2022-11-23T06:45:28.325Z,12.13
2022-11-23T06:47:57.289Z,12.31
2022-11-23T06:50:25.567Z,12.45
2022-11-23T06:52:57.385Z,12.65
2022-11-23T06:55:27.206Z,12.62
2022-11-23T06:57:55.326Z,12.65
2022-11-23T07:00:23.280Z,12.73
2022-11-23T07:02:53.568Z,12.81
2022-11-23T07:05:21.633Z,12.71
2022-11-23T07:07:49.991Z,12.70
2022-11-23T07:10:18.671Z,12.80
2022-11-23T07:12:48.233Z,12.99
2022-11-23T07:15:16.318Z,13.23
2022-11-23T07:17:45.273Z,13.28
2022-11-23T07:20:14.985Z,13.29
2022-11-23T07:22:42.922Z,13.39
2022-11-23T07:25:16.442Z,13.42
2022-11-23T07:27:44.552Z,13.50
2022-11-23T07:30:14.906Z,13.56
2022-11-23T07:32:42.809Z,13.68
2022-11-23T07:35:11.461Z,13.73
2022-11-23T07:37:39.495Z,13.82
2022-11-23T07:40:09.091Z,13.90
2022-11-23T07:42:44.195Z,13.85
2022-11-23T07:45:14.465Z,14.00
2022-11-23T07:47:42.414Z,13.92
2022-11-23T07:50:12.026Z,14.04
2022-11-23T07:52:40.767Z,14.09
2022-11-23T07:55:09.604Z,14.17
2022-11-23T07:57:37.524Z,14.04
2022-11-23T08:00:06.542Z,14.28
2022-11-23T08:02:35.993Z,14.35
2022-11-23T08:05:03.988Z,14.37
2022-11-23T08:07:31.983Z,14.17
2022-11-23T08:09:59.887Z,14.37
2022-11-23T08:12:30.902Z,14.43
2022-11-23T08:14:58.828Z,14.37
2022-11-23T08:17:26.718Z,14.35
2022-11-23T08:19:56.020Z,14.34
2022-11-23T08:22:23.968Z,14.25
2022-11-23T08:24:52.144Z,14.39
2022-11-23T08:27:20.096Z,14.49
2022-11-23T08:29:48.027Z,14.62
2022-11-23T08:32:16.008Z,14.70
2022-11-23T08:34:44.992Z,14.88
2022-11-23T08:37:14.331Z,14.66
2022-11-23T08:39:42.465Z,14.56
2022-11-23T08:42:10.515Z,14.49
2022-11-23T08:44:38.433Z,14.56
2022-11-23T08:47:06.489Z,14.57
2022-11-23T08:49:34.635Z,14.61
2022-11-23T08:52:02.613Z,14.52
2022-11-23T08:54:33.577Z,14.57
2022-11-23T08:57:01.879Z,14.55
2022-11-23T08:59:29.812Z,14.57
2022-11-23T09:01:57.775Z,14.49
2022-11-23T09:04:27.731Z,14.28
2022-11-23T09:06:55.632Z,14.08
2022-11-23T09:09:23.673Z,13.86
2022-11-23T09:11:54.025Z,13.89
2022-11-23T09:14:22.397Z,13.99
2022-11-23T09:16:50.394Z,14.11
2022-11-23T09:19:18.316Z,14.20
2022-11-23T09:21:46.452Z,14.28
2022-11-23T09:24:15.011Z,14.26
2022-11-23T09:26:43.040Z,14.23
2022-11-23T09:29:13.105Z,14.13
2022-11-23T09:31:41.232Z,14.05
2022-11-23T09:34:11.490Z,14.14
2022-11-23T09:36:39.406Z,14.13
2022-11-23T09:39:08.575Z,14.15
2022-11-23T09:42:04.062Z,14.14
2022-11-23T09:44:44.773Z,14.19
2022-11-23T09:47:28.867Z,14.27
2022-11-23T09:50:03.278Z,14.26
2022-11-23T09:52:32.345Z,14.34
2022-11-23T09:55:07.258Z,14.28
2022-11-23T09:57:37.247Z,14.22
2022-11-23T10:00:09.852Z,14.29
2022-11-23T10:02:41.714Z,14.16
2022-11-23T10:05:16.996Z,14.01
2022-11-23T10:07:55.945Z,13.87
2022-11-23T10:10:40.861Z,13.91
2022-11-23T10:13:23.372Z,14.24
2022-11-23T10:16:07.999Z,14.34
2022-11-23T10:18:44.427Z,14.65
2022-11-23T10:21:23.783Z,14.81
2022-11-23T10:23:57.666Z,14.77
2022-11-23T10:26:33.105Z,14.89
2022-11-23T10:29:13.590Z,15.16
2022-11-23T10:31:48.332Z,15.20
2022-11-23T10:34:22.610Z,15.31
2022-11-23T10:36:50.563Z,14.86
2022-11-23T10:39:23.916Z,14.94
2022-11-23T10:41:52.962Z,14.92
2022-11-23T10:44:32.150Z,15.32
2022-11-23T10:47:01.974Z,15.57
2022-11-23T10:49:31.429Z,15.73
2022-11-23T10:52:03.721Z,15.72
2022-11-23T10:54:34.700Z,15.50
2022-11-23T10:57:04.860Z,15.50
2022-11-23T10:59:36.908Z,15.45
2022-11-23T11:02:17.813Z,15.16
2022-11-23T11:04:47.173Z,15.04
2022-11-23T11:07:27.313Z,15.31
2022-11-23T11:09:57.875Z,15.19
2022-11-23T11:12:26.740Z,14.81
2022-11-23T11:15:10.804Z,14.72
2022-11-23T11:17:43.050Z,14.94
2022-11-23T11:20:33.295Z,15.20
2022-11-23T11:23:03.985Z,15.29
2022-11-23T11:25:35.738Z,15.43
2022-11-23T11:28:05.909Z,15.34
2022-11-23T11:30:44.959Z,15.25
2022-11-23T11:33:18.847Z,15.13
2022-11-23T11:35:51.535Z,14.81
2022-11-23T11:38:24.079Z,15.05
2022-11-23T11:40:54.751Z,15.04
2022-11-23T11:43:37.660Z,14.73
2022-11-23T11:46:28.546Z,14.70
2022-11-23T11:49:05.434Z,14.91
2022-11-23T11:51:38.044Z,14.77
2022-11-23T11:54:14.562Z,14.84
2022-11-23T11:56:45.991Z,14.94
2022-11-23T11:59:21.503Z,14.99
2022-11-23T12:01:58.422Z,15.09
2022-11-23T12:04:36.415Z,15.42
2022-11-23T12:07:09.676Z,15.27
2022-11-23T12:09:42.516Z,15.16
2022-11-23T12:12:23.798Z,14.99
2022-11-23T12:14:54.778Z,14.88
2022-11-23T12:17:41.088Z,14.99
2022-11-23T12:20:24.103Z,15.03
2022-11-23T12:23:15.144Z,15.10
2022-11-23T12:25:51.469Z,14.89
2022-11-23T12:28:39.477Z,15.05
2022-11-23T12:31:17.756Z,15.09
2022-11-23T12:33:56.641Z,15.17
2022-11-23T12:36:44.179Z,14.70
2022-11-23T12:39:24.487Z,14.49
2022-11-23T12:41:59.648Z,14.62
2022-11-23T12:45:10.539Z,14.75
2022-11-23T12:47:48.744Z,15.05
2022-11-23T12:50:25.219Z,15.46
2022-11-23T12:53:05.852Z,15.76
2022-11-23T12:55:44.972Z,15.92
2022-11-23T12:58:22.231Z,15.92
2022-11-23T13:00:58.082Z,15.42
2022-11-23T13:03:54.466Z,15.40
2022-11-23T13:10:11.326Z,15.24
2022-11-23T13:12:54.697Z,15.08
2022-11-23T13:15:48.167Z,15.02
2022-11-23T13:18:29.212Z,15.18
2022-11-23T13:21:13.782Z,14.89
2022-11-23T13:23:41.924Z,14.83
2022-11-23T13:26:21.690Z,14.84
2022-11-23T13:28:58.610Z,15.15
2022-11-23T13:31:45.292Z,14.91
2022-11-23T13:34:47.689Z,15.11
2022-11-23T13:37:15.611Z,14.96
2022-11-23T13:40:03.935Z,15.39
2022-11-23T13:42:35.803Z,15.29
2022-11-23T13:45:28.676Z,15.48
2022-11-23T13:48:06.678Z,15.25
2022-11-23T13:50:35.278Z,15.05
2022-11-23T13:53:06.155Z,15.35
2022-11-23T13:55:37.855Z,15.45
2022-11-23T13:58:42.098Z,15.44
2022-11-23T14:01:10.744Z,15.03
2022-11-23T14:03:55.875Z,15.05
2022-11-23T14:06:51.348Z,15.23
2022-11-23T14:09:45.540Z,14.98
2022-11-23T14:12:37.843Z,14.81
2022-11-23T14:15:16.560Z,15.04
2022-11-23T14:18:28.765Z,15.12
2022-11-23T14:21:08.307Z,15.29
2022-11-23T14:24:14.208Z,15.06
2022-11-23T14:26:53.276Z,14.83
2022-11-23T14:29:29.930Z,14.77
2022-11-23T14:32:41.019Z,14.54
2022-11-23T14:35:33.729Z,14.30
2022-11-23T14:38:42.105Z,14.35
2022-11-23T14:41:36.313Z,14.43
2022-11-23T14:44:28.241Z,14.28
2022-11-23T14:47:03.591Z,14.22
2022-11-23T14:49:33.796Z,14.14
2022-11-23T14:52:04.669Z,14.30
2022-11-23T14:54:33.856Z,14.13
2022-11-23T14:57:05.398Z,13.96
2022-11-23T14:59:37.990Z,13.95
2022-11-23T15:02:15.938Z,14.09
2022-11-23T15:05:06.730Z,14.12
2022-11-23T15:07:46.355Z,14.36
2022-11-23T15:10:30.298Z,14.21
2022-11-23T15:12:59.591Z,14.19
2022-11-23T15:15:47.561Z,14.23
2022-11-23T15:18:29.203Z,14.44
2022-11-23T15:21:03.536Z,14.60
2022-11-23T15:23:40.977Z,14.54
2022-11-23T15:26:34.597Z,14.51
2022-11-23T15:29:29.506Z,14.49
2022-11-23T15:32:22.296Z,14.34
2022-11-23T15:34:46.307Z,14.11
2022-11-23T15:37:16.231Z,14.01
2022-11-23T15:39:44.510Z,14.13
2022-11-23T15:42:18.724Z,14.01
2022-11-23T15:44:51.096Z,13.98
2022-11-23T15:47:31.390Z,14.10
2022-11-23T15:50:04.008Z,14.24
2022-11-23T15:52:36.591Z,14.44
2022-11-23T15:55:09.815Z,14.32
2022-11-23T15:57:40.272Z,14.45
2022-11-23T16:00:11.091Z,14.50
2022-11-23T16:02:41.720Z,14.54
2022-11-23T16:05:15.474Z,14.49
2022-11-23T16:07:58.769Z,14.45
2022-11-23T16:10:28.678Z,14.23
2022-11-23T16:12:58.526Z,14.07
2022-11-23T16:15:42.337Z,13.77
2022-11-23T16:18:23.199Z,13.73
2022-11-23T16:20:54.999Z,13.47
2022-11-23T16:23:26.346Z,13.55
2022-11-23T16:25:57.560Z,13.57
2022-11-23T16:28:29.836Z,13.49
2022-11-23T16:30:58.150Z,13.46
2022-11-23T16:33:26.879Z,13.44
2022-11-23T16:35:54.859Z,13.33
2022-11-23T16:38:24.607Z,13.28
2022-11-23T16:40:52.879Z,13.29
2022-11-23T16:43:20.819Z,13.13
2022-11-23T16:45:51.281Z,12.90
2022-11-23T16:48:40.298Z,12.86
2022-11-23T16:51:10.910Z,12.93
2022-11-23T16:54:11.841Z,12.77
2022-11-23T16:56:31.146Z,12.83
2022-11-23T16:58:59.120Z,12.83
2022-11-23T17:01:29.587Z,12.90
2022-11-23T17:03:57.721Z,12.67
2022-11-23T17:06:26.767Z,12.59
2022-11-23T17:09:06.183Z,12.58
2022-11-23T17:11:40.047Z,12.54
2022-11-23T17:14:18.405Z,12.71
2022-11-23T17:16:47.246Z,12.71
2022-11-23T17:19:16.880Z,12.45
2022-11-23T17:21:45.286Z,12.57
2022-11-23T17:24:15.006Z,12.46
2022-11-23T17:26:46.171Z,12.49
2022-11-23T17:29:16.994Z,12.50
2022-11-23T17:31:45.657Z,12.49
2022-11-23T17:34:15.753Z,12.53
2022-11-23T17:36:45.818Z,12.42
2022-11-23T17:39:19.682Z,12.42
2022-11-23T17:41:48.187Z,12.37
2022-11-23T17:44:17.105Z,12.19
2022-11-23T17:46:46.408Z,12.25
2022-11-23T17:49:17.733Z,12.26
2022-11-23T17:51:48.401Z,12.35
2022-11-23T17:54:20.621Z,12.29
2022-11-23T17:56:48.543Z,12.37
2022-11-23T17:59:17.455Z,12.29
2022-11-23T18:01:45.617Z,12.38
2022-11-23T18:04:13.572Z,12.27
2022-11-23T18:06:41.507Z,12.41
2022-11-23T18:09:12.071Z,12.49
2022-11-23T18:11:41.508Z,12.43
2022-11-23T18:14:09.494Z,12.46
2022-11-23T18:16:37.813Z,12.49
2022-11-23T18:19:05.892Z,12.45
2022-11-23T18:21:33.827Z,12.52
2022-11-23T18:24:04.692Z,12.55
2022-11-23T18:26:32.981Z,12.57
2022-11-23T18:29:02.549Z,12.71
2022-11-23T18:31:30.614Z,12.81
2022-11-23T18:33:58.606Z,12.83
2022-11-23T18:36:26.836Z,12.87
2022-11-23T18:38:54.819Z,12.94
2022-11-23T18:41:23.130Z,12.93
2022-11-23T18:43:51.286Z,12.81
2022-11-23T18:46:21.681Z,12.68
2022-11-23T18:48:53.609Z,12.80
2022-11-23T18:51:22.111Z,12.91
2022-11-23T18:53:51.454Z,12.87
2022-11-23T18:56:19.432Z,12.91
2022-11-23T18:58:48.252Z,12.85
2022-11-23T19:01:20.123Z,12.92
2022-11-23T19:03:51.564Z,12.87
2022-11-23T19:06:22.031Z,12.88
2022-11-23T19:08:53.600Z,12.93
2022-11-23T19:11:23.131Z,13.12
2022-11-23T19:13:53.433Z,13.07
2022-11-23T19:16:23.603Z,13.02
2022-11-23T19:18:57.164Z,12.98
2022-11-23T19:21:27.364Z,13.08
2022-11-23T19:24:16.904Z,13.06
2022-11-23T19:27:05.451Z,13.02
2022-11-23T19:29:34.380Z,12.79
2022-11-23T19:32:02.781Z,12.84
2022-11-23T19:34:32.170Z,12.85
2022-11-23T19:37:01.188Z,12.80
2022-11-23T19:39:29.816Z,12.76
2022-11-23T19:42:16.645Z,12.93
2022-11-23T19:45:06.345Z,12.84
2022-11-23T19:47:54.895Z,13.03
2022-11-23T19:50:56.004Z,13.09
2022-11-23T19:53:38.904Z,13.19
2022-11-23T19:56:29.071Z,13.13
2022-11-23T19:59:18.373Z,13.26
2022-11-23T20:02:09.780Z,13.39
2022-11-23T20:04:58.030Z,13.41
2022-11-23T20:07:47.981Z,13.32
2022-11-23T20:10:36.545Z,13.26
2022-11-23T20:13:25.218Z,13.06
2022-11-23T20:16:15.264Z,13.12
2022-11-23T20:19:06.421Z,12.89
2022-11-23T20:21:54.713Z,12.84
2022-11-23T20:24:44.454Z,12.87
2022-11-23T20:27:32.689Z,12.73
2022-11-23T20:30:21.016Z,12.70
2022-11-23T20:33:09.532Z,12.78
2022-11-23T20:36:08.980Z,12.88
2022-11-23T20:38:58.848Z,12.82
2022-11-23T20:41:49.804Z,12.91
2022-11-23T20:44:38.434Z,12.94
2022-11-23T20:47:28.079Z,12.87
2022-11-23T20:50:16.995Z,12.78
2022-11-23T20:53:05.867Z,12.56
2022-11-23T20:55:54.163Z,12.45
2022-11-23T20:58:44.124Z,12.48
2022-11-23T21:01:32.669Z,12.53
2022-11-23T21:04:03.985Z,12.52
2022-11-23T21:06:37.247Z,12.29
2022-11-23T21:09:25.423Z,12.35
2022-11-23T21:12:29.267Z,12.33
2022-11-23T21:15:05.283Z,12.23
2022-11-23T21:17:33.241Z,12.27
2022-11-23T21:20:20.031Z,12.16
2022-11-23T21:23:09.686Z,11.66
2022-11-23T21:25:58.056Z,11.59
2022-11-23T21:28:34.482Z,11.60
2022-11-23T21:31:15.208Z,11.51
2022-11-23T21:33:45.070Z,11.35
2022-11-23T21:36:13.741Z,11.31
2022-11-23T21:39:03.875Z,11.33
2022-11-23T21:41:32.599Z,11.34
2022-11-23T21:44:00.697Z,11.46
2022-11-23T21:46:50.616Z,11.56
2022-11-23T21:49:39.027Z,11.60
2022-11-23T21:52:28.542Z,11.53
2022-11-23T21:55:16.903Z,11.58
2022-11-23T21:57:57.861Z,11.20
2022-11-23T22:00:31.478Z,11.23
2022-11-23T22:03:19.790Z,11.27
2022-11-23T22:06:09.044Z,11.27
2022-11-23T22:09:00.028Z,11.25
2022-11-23T22:11:48.417Z,11.12
2022-11-23T22:14:36.711Z,10.84
2022-11-23T22:17:25.080Z,10.92
2022-11-23T22:20:15.978Z,10.85
2022-11-23T22:23:04.684Z,10.77
2022-11-23T22:25:53.106Z,10.34
2022-11-23T22:28:43.351Z,10.19
2022-11-23T22:31:33.183Z,10.08
2022-11-23T22:34:24.343Z,10.31
2022-11-23T22:37:14.099Z,10.04
2022-11-23T22:40:02.508Z,10.11
2022-11-23T22:42:51.062Z,9.85
2022-11-23T22:45:39.558Z,9.75
2022-11-23T22:48:27.849Z,9.69
2022-11-23T22:51:19.383Z,10.00
2022-11-23T22:54:10.697Z,10.08
2022-11-23T22:56:59.212Z,10.17
2022-11-23T22:59:47.539Z,10.19
2022-11-23T23:02:36.038Z,10.42
2022-11-23T23:05:24.534Z,10.05
2022-11-23T23:08:13.886Z,10.11
2022-11-23T23:10:44.382Z,10.32
2022-11-23T23:13:12.546Z,10.44
2022-11-23T23:15:40.668Z,10.39
2022-11-23T23:18:08.760Z,10.28
2022-11-23T23:20:37.533Z,10.14
2022-11-23T23:23:05.595Z,10.41
2022-11-23T23:25:34.843Z,10.43
2022-11-23T23:28:04.839Z,10.35
2022-11-23T23:30:33.476Z,10.36
2022-11-23T23:33:01.566Z,10.48
2022-11-23T23:35:36.595Z,10.44
2022-11-23T23:38:26.983Z,10.51
2022-11-23T23:41:19.066Z,10.51
2022-11-23T23:44:09.166Z,10.43
2022-11-23T23:46:57.443Z,10.47
2022-11-23T23:49:45.853Z,10.49
2022-11-23T23:52:34.183Z,10.54
2022-11-23T23:55:22.505Z,10.50
2022-11-23T23:58:10.821Z,10.42
